sensor_id;sensor_type;location;lat;lon;timestamp;temperature;humidity
75091;DHT22;63674;48.048;8.306;2022-12-05T00:02:24;1.30;99.90
75091;DHT22;63674;48.048;8.306;2022-12-05T00:04:53;1.30;99.90
75091;DHT22;63674;48.048;8.306;2022-12-05T00:07:22;1.30;99.90
75091;DHT22;63674;48.048;8.306;2022-12-05T00:12:20;1.30;99.90
75091;DHT22;63674;48.048;8.306;2022-12-05T00:17:18;1.40;99.90
75091;DHT22;63674;48.048;8.306;2022-12-05T00:22:22;1.40;99.90
75091;DHT22;63674;48.048;8.306;2022-12-05T00:24:52;1.40;99.90
75091;DHT22;63674;48.048;8.306;2022-12-05T00:27:22;1.40;99.90
75091;DHT22;63674;48.048;8.306;2022-12-05T00:34:49;1.40;99.90
75091;DHT22;63674;48.048;8.306;2022-12-05T00:44:48;1.40;99.90
75091;DHT22;63674;48.048;8.306;2022-12-05T00:49:46;1.50;99.90
75091;DHT22;63674;48.048;8.306;2022-12-05T00:54:43;1.50;99.90
75091;DHT22;63674;48.048;8.306;2022-12-05T00:57:12;1.40;99.90
75091;DHT22;63674;48.048;8.306;2022-12-05T01:02:11;1.40;99.90
75091;DHT22;63674;48.048;8.306;2022-12-05T01:09:38;1.20;99.90
75091;DHT22;63674;48.048;8.306;2022-12-05T01:12:07;1.20;99.90
75091;DHT22;63674;48.048;8.306;2022-12-05T01:14:35;1.10;99.90
75091;DHT22;63674;48.048;8.306;2022-12-05T01:17:04;1.20;99.90
75091;DHT22;63674;48.048;8.306;2022-12-05T01:19:34;1.20;99.90
75091;DHT22;63674;48.048;8.306;2022-12-05T01:22:03;1.20;99.90
75091;DHT22;63674;48.048;8.306;2022-12-05T01:24:32;1.10;99.90
75091;DHT22;63674;48.048;8.306;2022-12-05T01:27:01;1.10;99.90
75091;DHT22;63674;48.048;8.306;2022-12-05T01:29:30;1.10;99.90
75091;DHT22;63674;48.048;8.306;2022-12-05T01:31:59;1.30;99.90
75091;DHT22;63674;48.048;8.306;2022-12-05T01:36:58;1.40;99.90
75091;DHT22;63674;48.048;8.306;2022-12-05T01:41:56;1.30;99.90
75091;DHT22;63674;48.048;8.306;2022-12-05T01:45:00;1.30;99.90
75091;DHT22;63674;48.048;8.306;2022-12-05T01:47:34;1.30;99.90
75091;DHT22;63674;48.048;8.306;2022-12-05T01:50:05;1.30;99.90
75091;DHT22;63674;48.048;8.306;2022-12-05T01:52:37;1.30;99.90
75091;DHT22;63674;48.048;8.306;2022-12-05T01:55:10;1.30;99.90
75091;DHT22;63674;48.048;8.306;2022-12-05T01:57:40;1.10;99.90
75091;DHT22;63674;48.048;8.306;2022-12-05T02:00:13;1.10;99.90
75091;DHT22;63674;48.048;8.306;2022-12-05T02:02:48;1.20;99.90
75091;DHT22;63674;48.048;8.306;2022-12-05T02:05:21;1.20;99.90
75091;DHT22;63674;48.048;8.306;2022-12-05T02:07:53;1.30;99.90
75091;DHT22;63674;48.048;8.306;2022-12-05T02:10:23;1.30;99.90
75091;DHT22;63674;48.048;8.306;2022-12-05T02:12:51;1.30;99.90
75091;DHT22;63674;48.048;8.306;2022-12-05T02:15:27;1.40;99.90
75091;DHT22;63674;48.048;8.306;2022-12-05T02:18:15;1.50;99.90
75091;DHT22;63674;48.048;8.306;2022-12-05T02:21:03;1.50;99.90
75091;DHT22;63674;48.048;8.306;2022-12-05T02:24:01;1.60;99.90
75091;DHT22;63674;48.048;8.306;2022-12-05T02:26:58;1.70;99.90
75091;DHT22;63674;48.048;8.306;2022-12-05T02:32:50;1.60;99.90
75091;DHT22;63674;48.048;8.306;2022-12-05T02:35:36;1.70;99.90
75091;DHT22;63674;48.048;8.306;2022-12-05T02:38:17;1.80;99.90
75091;DHT22;63674;48.048;8.306;2022-12-05T02:40:57;1.70;99.90
75091;DHT22;63674;48.048;8.306;2022-12-05T02:43:33;1.70;99.90
75091;DHT22;63674;48.048;8.306;2022-12-05T02:46:10;1.70;99.90
75091;DHT22;63674;48.048;8.306;2022-12-05T02:48:41;1.90;99.90
75091;DHT22;63674;48.048;8.306;2022-12-05T02:51:15;1.90;99.90
75091;DHT22;63674;48.048;8.306;2022-12-05T02:53:48;2.00;99.90
75091;DHT22;63674;48.048;8.306;2022-12-05T02:56:18;2.10;99.90
75091;DHT22;63674;48.048;8.306;2022-12-05T02:58:51;2.10;99.90
75091;DHT22;63674;48.048;8.306;2022-12-05T03:01:24;2.10;99.90
75091;DHT22;63674;48.048;8.306;2022-12-05T03:03:55;2.20;99.90
75091;DHT22;63674;48.048;8.306;2022-12-05T03:06:27;2.30;99.90
75091;DHT22;63674;48.048;8.306;2022-12-05T03:09:00;2.30;99.90
75091;DHT22;63674;48.048;8.306;2022-12-05T03:11:35;2.30;99.90
75091;DHT22;63674;48.048;8.306;2022-12-05T03:14:11;2.30;99.90
75091;DHT22;63674;48.048;8.306;2022-12-05T03:16:45;2.30;99.90
75091;DHT22;63674;48.048;8.306;2022-12-05T03:19:19;2.40;99.90
75091;DHT22;63674;48.048;8.306;2022-12-05T03:21:54;2.40;99.90
75091;DHT22;63674;48.048;8.306;2022-12-05T03:24:25;2.20;99.90
75091;DHT22;63674;48.048;8.306;2022-12-05T03:27:00;2.10;99.90
75091;DHT22;63674;48.048;8.306;2022-12-05T03:29:37;1.90;99.90
75091;DHT22;63674;48.048;8.306;2022-12-05T03:32:12;1.80;99.90
75091;DHT22;63674;48.048;8.306;2022-12-05T03:34:50;1.80;99.90
75091;DHT22;63674;48.048;8.306;2022-12-05T03:37:31;1.80;99.90
75091;DHT22;63674;48.048;8.306;2022-12-05T03:40:12;1.80;99.90
75091;DHT22;63674;48.048;8.306;2022-12-05T03:42:52;1.80;99.90
75091;DHT22;63674;48.048;8.306;2022-12-05T03:45:28;1.80;99.90
75091;DHT22;63674;48.048;8.306;2022-12-05T03:48:06;1.90;99.90
75091;DHT22;63674;48.048;8.306;2022-12-05T03:50:41;2.00;99.90
75091;DHT22;63674;48.048;8.306;2022-12-05T03:53:15;1.90;99.90
75091;DHT22;63674;48.048;8.306;2022-12-05T03:55:52;1.90;99.90
75091;DHT22;63674;48.048;8.306;2022-12-05T03:58:27;1.80;99.90
75091;DHT22;63674;48.048;8.306;2022-12-05T04:00:59;1.80;99.90
75091;DHT22;63674;48.048;8.306;2022-12-05T04:03:36;1.90;99.90
75091;DHT22;63674;48.048;8.306;2022-12-05T04:06:17;1.80;99.90
75091;DHT22;63674;48.048;8.306;2022-12-05T04:08:54;1.80;99.90
75091;DHT22;63674;48.048;8.306;2022-12-05T04:11:27;1.90;99.90
75091;DHT22;63674;48.048;8.306;2022-12-05T04:14:02;1.90;99.90
75091;DHT22;63674;48.048;8.306;2022-12-05T04:16:37;1.90;99.90
75091;DHT22;63674;48.048;8.306;2022-12-05T04:19:29;1.90;99.90
75091;DHT22;63674;48.048;8.306;2022-12-05T04:22:21;1.70;99.90
75091;DHT22;63674;48.048;8.306;2022-12-05T04:24:52;1.70;99.90
75091;DHT22;63674;48.048;8.306;2022-12-05T04:27:44;1.80;99.90
75091;DHT22;63674;48.048;8.306;2022-12-05T04:30:19;1.80;99.90
75091;DHT22;63674;48.048;8.306;2022-12-05T04:32:53;1.80;99.90
75091;DHT22;63674;48.048;8.306;2022-12-05T04:35:32;1.70;99.90
75091;DHT22;63674;48.048;8.306;2022-12-05T04:38:05;1.80;99.90
75091;DHT22;63674;48.048;8.306;2022-12-05T04:40:38;1.70;99.90
75091;DHT22;63674;48.048;8.306;2022-12-05T04:43:09;1.70;99.90
75091;DHT22;63674;48.048;8.306;2022-12-05T04:45:40;1.60;99.90
75091;DHT22;63674;48.048;8.306;2022-12-05T04:48:13;1.50;99.90
75091;DHT22;63674;48.048;8.306;2022-12-05T04:50:46;1.40;99.90
75091;DHT22;63674;48.048;8.306;2022-12-05T04:53:16;1.30;99.90
75091;DHT22;63674;48.048;8.306;2022-12-05T04:55:48;1.40;99.90
75091;DHT22;63674;48.048;8.306;2022-12-05T04:58:19;1.40;99.90
75091;DHT22;63674;48.048;8.306;2022-12-05T05:00:54;1.50;99.90
75091;DHT22;63674;48.048;8.306;2022-12-05T05:03:30;1.50;99.90
75091;DHT22;63674;48.048;8.306;2022-12-05T05:06:03;1.60;99.90
75091;DHT22;63674;48.048;8.306;2022-12-05T05:08:32;1.60;99.90
75091;DHT22;63674;48.048;8.306;2022-12-05T05:11:05;1.60;99.90
75091;DHT22;63674;48.048;8.306;2022-12-05T05:13:38;1.70;99.90
75091;DHT22;63674;48.048;8.306;2022-12-05T05:16:07;1.70;99.90
75091;DHT22;63674;48.048;8.306;2022-12-05T05:18:40;1.70;99.90
75091;DHT22;63674;48.048;8.306;2022-12-05T05:21:15;1.70;99.90
75091;DHT22;63674;48.048;8.306;2022-12-05T05:23:46;1.80;99.90
75091;DHT22;63674;48.048;8.306;2022-12-05T05:26:16;1.80;99.90
75091;DHT22;63674;48.048;8.306;2022-12-05T05:28:46;1.80;99.90
75091;DHT22;63674;48.048;8.306;2022-12-05T05:31:15;1.80;99.90
75091;DHT22;63674;48.048;8.306;2022-12-05T05:33:47;1.70;99.90
75091;DHT22;63674;48.048;8.306;2022-12-05T05:36:19;1.50;99.90
75091;DHT22;63674;48.048;8.306;2022-12-05T05:38:50;1.30;99.90
75091;DHT22;63674;48.048;8.306;2022-12-05T05:41:22;1.30;99.90
75091;DHT22;63674;48.048;8.306;2022-12-05T05:43:52;1.30;99.90
75091;DHT22;63674;48.048;8.306;2022-12-05T05:46:25;1.30;99.90
75091;DHT22;63674;48.048;8.306;2022-12-05T05:51:25;1.50;99.90
75091;DHT22;63674;48.048;8.306;2022-12-05T05:53:57;1.60;99.90
75091;DHT22;63674;48.048;8.306;2022-12-05T05:56:27;1.60;99.90
75091;DHT22;63674;48.048;8.306;2022-12-05T05:58:58;1.50;99.90
75091;DHT22;63674;48.048;8.306;2022-12-05T06:01:28;1.60;99.90
75091;DHT22;63674;48.048;8.306;2022-12-05T06:03:57;1.60;99.90
75091;DHT22;63674;48.048;8.306;2022-12-05T06:06:27;1.50;99.90
75091;DHT22;63674;48.048;8.306;2022-12-05T06:11:26;1.60;99.90
75091;DHT22;63674;48.048;8.306;2022-12-05T06:13:56;1.60;99.90
75091;DHT22;63674;48.048;8.306;2022-12-05T06:16:27;1.60;99.90
75091;DHT22;63674;48.048;8.306;2022-12-05T06:21:27;1.70;99.90
75091;DHT22;63674;48.048;8.306;2022-12-05T06:28:53;1.70;99.90
75091;DHT22;63674;48.048;8.306;2022-12-05T06:31:23;1.80;99.90
75091;DHT22;63674;48.048;8.306;2022-12-05T06:33:59;1.80;99.90
75091;DHT22;63674;48.048;8.306;2022-12-05T06:36:30;1.60;99.90
75091;DHT22;63674;48.048;8.306;2022-12-05T06:41:28;1.70;99.90
75091;DHT22;63674;48.048;8.306;2022-12-05T06:43:58;1.60;99.90
75091;DHT22;63674;48.048;8.306;2022-12-05T06:48:58;1.70;99.90
75091;DHT22;63674;48.048;8.306;2022-12-05T06:51:26;1.70;99.90
75091;DHT22;63674;48.048;8.306;2022-12-05T06:53:57;1.70;99.90
75091;DHT22;63674;48.048;8.306;2022-12-05T07:04:14;1.80;99.90
75091;DHT22;63674;48.048;8.306;2022-12-05T07:06:44;1.80;99.90
75091;DHT22;63674;48.048;8.306;2022-12-05T07:09:19;1.80;99.90
75091;DHT22;63674;48.048;8.306;2022-12-05T07:12:10;1.80;99.90
75091;DHT22;63674;48.048;8.306;2022-12-05T07:14:39;1.70;99.90
75091;DHT22;63674;48.048;8.306;2022-12-05T07:19:45;1.80;99.90
75091;DHT22;63674;48.048;8.306;2022-12-05T07:22:14;1.80;99.90
75091;DHT22;63674;48.048;8.306;2022-12-05T07:24:44;1.80;99.90
75091;DHT22;63674;48.048;8.306;2022-12-05T07:27:14;1.80;99.90
75091;DHT22;63674;48.048;8.306;2022-12-05T07:29:51;1.80;99.90
75091;DHT22;63674;48.048;8.306;2022-12-05T07:32:19;1.80;99.90
75091;DHT22;63674;48.048;8.306;2022-12-05T07:37:21;1.80;99.90
75091;DHT22;63674;48.048;8.306;2022-12-05T07:39:52;1.80;99.90
75091;DHT22;63674;48.048;8.306;2022-12-05T07:42:21;1.80;99.90
75091;DHT22;63674;48.048;8.306;2022-12-05T07:44:50;1.80;99.90
75091;DHT22;63674;48.048;8.306;2022-12-05T07:49:47;1.70;99.90
75091;DHT22;63674;48.048;8.306;2022-12-05T07:54:45;1.70;99.90
75091;DHT22;63674;48.048;8.306;2022-12-05T07:57:16;1.80;99.90
75091;DHT22;63674;48.048;8.306;2022-12-05T08:02:13;1.80;99.90
75091;DHT22;63674;48.048;8.306;2022-12-05T08:07:11;1.90;99.90
75091;DHT22;63674;48.048;8.306;2022-12-05T08:09:40;1.90;99.90
75091;DHT22;63674;48.048;8.306;2022-12-05T08:14:39;1.90;99.90
75091;DHT22;63674;48.048;8.306;2022-12-05T08:17:08;1.90;99.90
75091;DHT22;63674;48.048;8.306;2022-12-05T08:19:36;2.00;99.90
75091;DHT22;63674;48.048;8.306;2022-12-05T08:22:05;1.90;99.90
75091;DHT22;63674;48.048;8.306;2022-12-05T08:24:34;1.90;99.90
75091;DHT22;63674;48.048;8.306;2022-12-05T08:27:03;1.90;99.90
75091;DHT22;63674;48.048;8.306;2022-12-05T08:29:32;2.00;99.90
75091;DHT22;63674;48.048;8.306;2022-12-05T08:32:02;2.00;99.90
75091;DHT22;63674;48.048;8.306;2022-12-05T08:34:31;2.00;99.90
75091;DHT22;63674;48.048;8.306;2022-12-05T08:37:00;2.10;99.90
75091;DHT22;63674;48.048;8.306;2022-12-05T08:39:28;2.10;99.90
75091;DHT22;63674;48.048;8.306;2022-12-05T08:42:04;2.10;99.90
75091;DHT22;63674;48.048;8.306;2022-12-05T08:47:04;2.10;99.90
75091;DHT22;63674;48.048;8.306;2022-12-05T08:49:33;2.10;99.90
75091;DHT22;63674;48.048;8.306;2022-12-05T08:52:01;2.20;99.90
75091;DHT22;63674;48.048;8.306;2022-12-05T08:59:28;2.00;99.90
75091;DHT22;63674;48.048;8.306;2022-12-05T09:04:27;1.90;99.90
75091;DHT22;63674;48.048;8.306;2022-12-05T09:06:55;1.90;99.90
75091;DHT22;63674;48.048;8.306;2022-12-05T09:14:23;2.00;99.90
75091;DHT22;63674;48.048;8.306;2022-12-05T09:19:21;2.10;99.90
75091;DHT22;63674;48.048;8.306;2022-12-05T09:21:52;2.20;99.90
75091;DHT22;63674;48.048;8.306;2022-12-05T09:24:21;2.30;99.90
75091;DHT22;63674;48.048;8.306;2022-12-05T09:29:19;2.40;99.90
75091;DHT22;63674;48.048;8.306;2022-12-05T09:31:48;2.40;99.90
75091;DHT22;63674;48.048;8.306;2022-12-05T09:34:18;2.50;99.90
75091;DHT22;63674;48.048;8.306;2022-12-05T09:39:25;2.60;99.90
75091;DHT22;63674;48.048;8.306;2022-12-05T09:42:12;2.60;99.90
75091;DHT22;63674;48.048;8.306;2022-12-05T09:45:02;2.60;99.90
75091;DHT22;63674;48.048;8.306;2022-12-05T09:47:45;2.60;99.90
75091;DHT22;63674;48.048;8.306;2022-12-05T09:50:20;2.50;99.90
75091;DHT22;63674;48.048;8.306;2022-12-05T09:53:08;2.50;99.90
75091;DHT22;63674;48.048;8.306;2022-12-05T09:55:45;2.50;99.90
75091;DHT22;63674;48.048;8.306;2022-12-05T09:58:25;2.50;99.90
75091;DHT22;63674;48.048;8.306;2022-12-05T10:01:01;2.50;99.90
75091;DHT22;63674;48.048;8.306;2022-12-05T10:03:38;2.50;99.90
75091;DHT22;63674;48.048;8.306;2022-12-05T10:06:14;2.50;99.90
75091;DHT22;63674;48.048;8.306;2022-12-05T10:09:00;2.40;99.90
75091;DHT22;63674;48.048;8.306;2022-12-05T10:11:45;2.50;99.90
75091;DHT22;63674;48.048;8.306;2022-12-05T10:14:23;2.50;99.90
75091;DHT22;63674;48.048;8.306;2022-12-05T10:17:02;2.40;99.90
75091;DHT22;63674;48.048;8.306;2022-12-05T10:19:38;2.40;99.90
75091;DHT22;63674;48.048;8.306;2022-12-05T10:22:12;2.40;99.90
75091;DHT22;63674;48.048;8.306;2022-12-05T10:24:49;2.40;99.90
75091;DHT22;63674;48.048;8.306;2022-12-05T10:27:26;2.40;99.90
75091;DHT22;63674;48.048;8.306;2022-12-05T10:30:12;2.50;99.90
75091;DHT22;63674;48.048;8.306;2022-12-05T10:32:50;2.50;99.90
75091;DHT22;63674;48.048;8.306;2022-12-05T10:35:22;2.60;99.90
75091;DHT22;63674;48.048;8.306;2022-12-05T10:37:52;2.60;99.90
75091;DHT22;63674;48.048;8.306;2022-12-05T10:40:24;2.60;99.90
75091;DHT22;63674;48.048;8.306;2022-12-05T10:42:56;2.60;99.90
75091;DHT22;63674;48.048;8.306;2022-12-05T10:47:55;2.50;99.90
75091;DHT22;63674;48.048;8.306;2022-12-05T10:50:27;2.60;99.90
75091;DHT22;63674;48.048;8.306;2022-12-05T10:52:59;2.70;99.90
75091;DHT22;63674;48.048;8.306;2022-12-05T10:55:33;2.70;99.90
75091;DHT22;63674;48.048;8.306;2022-12-05T10:58:16;2.70;99.90
75091;DHT22;63674;48.048;8.306;2022-12-05T11:00:50;2.70;99.90
75091;DHT22;63674;48.048;8.306;2022-12-05T11:03:25;2.70;99.90
75091;DHT22;63674;48.048;8.306;2022-12-05T11:05:56;2.70;99.90
75091;DHT22;63674;48.048;8.306;2022-12-05T11:08:29;2.80;99.90
75091;DHT22;63674;48.048;8.306;2022-12-05T11:11:21;2.80;99.90
75091;DHT22;63674;48.048;8.306;2022-12-05T11:13:53;2.90;99.90
75091;DHT22;63674;48.048;8.306;2022-12-05T11:16:26;2.90;99.90
75091;DHT22;63674;48.048;8.306;2022-12-05T11:19:17;3.00;99.90
75091;DHT22;63674;48.048;8.306;2022-12-05T11:21:51;2.90;99.90
75091;DHT22;63674;48.048;8.306;2022-12-05T11:24:21;2.90;99.90
75091;DHT22;63674;48.048;8.306;2022-12-05T11:26:52;2.90;99.90
75091;DHT22;63674;48.048;8.306;2022-12-05T11:29:33;3.00;99.90
75091;DHT22;63674;48.048;8.306;2022-12-05T11:32:04;3.00;99.90
75091;DHT22;63674;48.048;8.306;2022-12-05T11:34:40;3.10;99.90
75091;DHT22;63674;48.048;8.306;2022-12-05T11:37:14;3.10;99.90
75091;DHT22;63674;48.048;8.306;2022-12-05T11:42:20;3.10;99.90
75091;DHT22;63674;48.048;8.306;2022-12-05T11:45:18;3.10;99.90
75091;DHT22;63674;48.048;8.306;2022-12-05T11:48:14;3.00;99.90
75091;DHT22;63674;48.048;8.306;2022-12-05T11:50:56;3.00;99.90
75091;DHT22;63674;48.048;8.306;2022-12-05T11:57:27;4.90;99.90
75091;DHT22;63674;48.048;8.306;2022-12-05T12:00:11;3.30;99.90
75091;DHT22;63674;48.048;8.306;2022-12-05T12:03:29;3.30;99.90
75091;DHT22;63674;48.048;8.306;2022-12-05T12:06:15;3.30;99.90
75091;DHT22;63674;48.048;8.306;2022-12-05T12:11:56;3.40;99.90
75091;DHT22;63674;48.048;8.306;2022-12-05T12:14:36;3.30;99.90
75091;DHT22;63674;48.048;8.306;2022-12-05T12:17:21;3.30;99.90
75091;DHT22;63674;48.048;8.306;2022-12-05T12:23:08;3.50;99.90
75091;DHT22;63674;48.048;8.306;2022-12-05T12:26:06;3.50;99.90
75091;DHT22;63674;48.048;8.306;2022-12-05T12:28:44;3.60;99.90
75091;DHT22;63674;48.048;8.306;2022-12-05T12:31:45;3.70;99.90
75091;DHT22;63674;48.048;8.306;2022-12-05T12:34:39;3.80;99.90
75091;DHT22;63674;48.048;8.306;2022-12-05T12:37:38;3.90;99.90
75091;DHT22;63674;48.048;8.306;2022-12-05T12:40:14;3.90;99.90
75091;DHT22;63674;48.048;8.306;2022-12-05T12:42:55;4.00;99.90
75091;DHT22;63674;48.048;8.306;2022-12-05T12:45:41;4.10;99.90
75091;DHT22;63674;48.048;8.306;2022-12-05T12:48:29;4.10;99.90
75091;DHT22;63674;48.048;8.306;2022-12-05T12:51:11;4.10;99.90
75091;DHT22;63674;48.048;8.306;2022-12-05T12:54:01;4.00;99.90
75091;DHT22;63674;48.048;8.306;2022-12-05T12:56:47;4.10;99.90
75091;DHT22;63674;48.048;8.306;2022-12-05T12:59:38;4.00;99.90
75091;DHT22;63674;48.048;8.306;2022-12-05T13:02:18;4.00;99.90
75091;DHT22;63674;48.048;8.306;2022-12-05T13:04:53;4.00;99.90
75091;DHT22;63674;48.048;8.306;2022-12-05T13:07:30;3.80;99.90
75091;DHT22;63674;48.048;8.306;2022-12-05T13:10:10;3.60;99.90
75091;DHT22;63674;48.048;8.306;2022-12-05T13:12:41;3.70;99.90
75091;DHT22;63674;48.048;8.306;2022-12-05T13:15:14;3.70;99.90
75091;DHT22;63674;48.048;8.306;2022-12-05T13:17:46;3.60;99.90
75091;DHT22;63674;48.048;8.306;2022-12-05T13:20:18;3.60;99.90
75091;DHT22;63674;48.048;8.306;2022-12-05T13:22:51;3.60;99.90
75091;DHT22;63674;48.048;8.306;2022-12-05T13:25:25;3.50;99.90
75091;DHT22;63674;48.048;8.306;2022-12-05T13:27:58;3.50;99.90
75091;DHT22;63674;48.048;8.306;2022-12-05T13:33:02;3.50;99.90
75091;DHT22;63674;48.048;8.306;2022-12-05T13:35:34;3.40;99.90
75091;DHT22;63674;48.048;8.306;2022-12-05T13:38:27;3.30;99.90
75091;DHT22;63674;48.048;8.306;2022-12-05T13:41:14;3.30;99.90
75091;DHT22;63674;48.048;8.306;2022-12-05T13:44:01;3.20;99.90
75091;DHT22;63674;48.048;8.306;2022-12-05T13:46:39;3.20;99.90
75091;DHT22;63674;48.048;8.306;2022-12-05T13:49:15;3.20;99.90
75091;DHT22;63674;48.048;8.306;2022-12-05T13:54:20;3.20;99.90
75091;DHT22;63674;48.048;8.306;2022-12-05T13:56:52;3.10;99.90
75091;DHT22;63674;48.048;8.306;2022-12-05T14:00:02;3.10;99.90
75091;DHT22;63674;48.048;8.306;2022-12-05T14:02:50;3.10;99.90
75091;DHT22;63674;48.048;8.306;2022-12-05T14:08:51;3.10;99.90
75091;DHT22;63674;48.048;8.306;2022-12-05T14:11:22;3.00;99.90
75091;DHT22;63674;48.048;8.306;2022-12-05T14:13:51;3.00;99.90
75091;DHT22;63674;48.048;8.306;2022-12-05T14:16:44;2.90;99.90
75091;DHT22;63674;48.048;8.306;2022-12-05T14:19:38;2.90;99.90
75091;DHT22;63674;48.048;8.306;2022-12-05T14:25:47;2.80;99.90
75091;DHT22;63674;48.048;8.306;2022-12-05T14:28:37;2.80;99.90
75091;DHT22;63674;48.048;8.306;2022-12-05T14:31:22;2.80;99.90
75091;DHT22;63674;48.048;8.306;2022-12-05T14:34:08;2.70;99.90
75091;DHT22;63674;48.048;8.306;2022-12-05T14:36:52;2.70;99.90
75091;DHT22;63674;48.048;8.306;2022-12-05T14:39:31;2.80;99.90
75091;DHT22;63674;48.048;8.306;2022-12-05T14:42:04;2.70;99.90
75091;DHT22;63674;48.048;8.306;2022-12-05T14:44:48;2.80;99.90
75091;DHT22;63674;48.048;8.306;2022-12-05T14:47:20;2.70;99.90
75091;DHT22;63674;48.048;8.306;2022-12-05T14:49:56;2.60;99.90
75091;DHT22;63674;48.048;8.306;2022-12-05T14:52:30;2.50;99.90
75091;DHT22;63674;48.048;8.306;2022-12-05T14:55:04;2.50;99.90
75091;DHT22;63674;48.048;8.306;2022-12-05T14:57:44;2.40;99.90
75091;DHT22;63674;48.048;8.306;2022-12-05T15:00:20;2.50;99.90
75091;DHT22;63674;48.048;8.306;2022-12-05T15:02:51;2.50;99.90
75091;DHT22;63674;48.048;8.306;2022-12-05T15:05:23;2.50;99.90
75091;DHT22;63674;48.048;8.306;2022-12-05T15:07:54;2.60;99.90
75091;DHT22;63674;48.048;8.306;2022-12-05T15:10:28;2.60;99.90
75091;DHT22;63674;48.048;8.306;2022-12-05T15:13:02;2.60;99.90
75091;DHT22;63674;48.048;8.306;2022-12-05T15:15:38;2.70;99.90
75091;DHT22;63674;48.048;8.306;2022-12-05T15:18:17;2.70;99.90
75091;DHT22;63674;48.048;8.306;2022-12-05T15:20:53;2.60;99.90
75091;DHT22;63674;48.048;8.306;2022-12-05T15:23:37;2.60;99.90
75091;DHT22;63674;48.048;8.306;2022-12-05T15:26:17;2.60;99.90
75091;DHT22;63674;48.048;8.306;2022-12-05T15:29:11;2.50;99.90
75091;DHT22;63674;48.048;8.306;2022-12-05T15:31:46;2.50;99.90
75091;DHT22;63674;48.048;8.306;2022-12-05T15:34:19;2.50;99.90
75091;DHT22;63674;48.048;8.306;2022-12-05T15:36:55;2.60;99.90
75091;DHT22;63674;48.048;8.306;2022-12-05T15:39:25;2.40;99.90
75091;DHT22;63674;48.048;8.306;2022-12-05T15:41:55;2.50;99.90
75091;DHT22;63674;48.048;8.306;2022-12-05T15:44:28;2.50;99.90
75091;DHT22;63674;48.048;8.306;2022-12-05T15:47:18;2.50;99.90
75091;DHT22;63674;48.048;8.306;2022-12-05T15:49:48;3.30;99.90
75091;DHT22;63674;48.048;8.306;2022-12-05T15:52:24;2.50;99.90
75091;DHT22;63674;48.048;8.306;2022-12-05T15:55:00;2.50;99.90
75091;DHT22;63674;48.048;8.306;2022-12-05T15:57:35;2.50;99.90
75091;DHT22;63674;48.048;8.306;2022-12-05T16:00:13;2.50;99.90
75091;DHT22;63674;48.048;8.306;2022-12-05T16:02:48;2.40;99.90
75091;DHT22;63674;48.048;8.306;2022-12-05T16:05:21;2.40;99.90
75091;DHT22;63674;48.048;8.306;2022-12-05T16:10:23;2.30;99.90
75091;DHT22;63674;48.048;8.306;2022-12-05T16:12:55;2.30;99.90
75091;DHT22;63674;48.048;8.306;2022-12-05T16:15:31;2.20;99.90
75091;DHT22;63674;48.048;8.306;2022-12-05T16:18:03;2.20;99.90
75091;DHT22;63674;48.048;8.306;2022-12-05T16:20:34;2.20;99.90
75091;DHT22;63674;48.048;8.306;2022-12-05T16:23:05;2.20;99.90
75091;DHT22;63674;48.048;8.306;2022-12-05T16:25:50;2.20;99.90
75091;DHT22;63674;48.048;8.306;2022-12-05T16:28:20;2.10;99.90
75091;DHT22;63674;48.048;8.306;2022-12-05T16:30:55;2.10;99.90
75091;DHT22;63674;48.048;8.306;2022-12-05T16:33:27;2.10;99.90
75091;DHT22;63674;48.048;8.306;2022-12-05T16:36:06;2.10;99.90
75091;DHT22;63674;48.048;8.306;2022-12-05T16:38:36;2.10;99.90
75091;DHT22;63674;48.048;8.306;2022-12-05T16:43:44;1.90;99.90
75091;DHT22;63674;48.048;8.306;2022-12-05T16:46:40;1.90;99.90
75091;DHT22;63674;48.048;8.306;2022-12-05T16:49:32;1.90;99.90
75091;DHT22;63674;48.048;8.306;2022-12-05T16:52:12;1.80;99.90
75091;DHT22;63674;48.048;8.306;2022-12-05T16:54:42;1.80;99.90
75091;DHT22;63674;48.048;8.306;2022-12-05T16:57:15;1.70;99.90
75091;DHT22;63674;48.048;8.306;2022-12-05T17:02:17;1.80;99.90
75091;DHT22;63674;48.048;8.306;2022-12-05T17:04:47;1.70;99.90
75091;DHT22;63674;48.048;8.306;2022-12-05T17:07:16;1.70;99.90
75091;DHT22;63674;48.048;8.306;2022-12-05T17:09:44;1.60;99.90
75091;DHT22;63674;48.048;8.306;2022-12-05T17:12:18;1.60;99.90
75091;DHT22;63674;48.048;8.306;2022-12-05T17:14:48;1.70;99.90
75091;DHT22;63674;48.048;8.306;2022-12-05T17:17:17;1.60;99.90
75091;DHT22;63674;48.048;8.306;2022-12-05T17:19:47;1.60;99.90
75091;DHT22;63674;48.048;8.306;2022-12-05T17:22:16;1.70;99.90
75091;DHT22;63674;48.048;8.306;2022-12-05T17:27:13;1.60;99.90
75091;DHT22;63674;48.048;8.306;2022-12-05T17:29:42;1.60;99.90
75091;DHT22;63674;48.048;8.306;2022-12-05T17:37:11;1.50;99.90
75091;DHT22;63674;48.048;8.306;2022-12-05T17:42:09;1.40;99.90
75091;DHT22;63674;48.048;8.306;2022-12-05T17:44:38;1.40;99.90
75091;DHT22;63674;48.048;8.306;2022-12-05T17:47:07;1.30;99.90
75091;DHT22;63674;48.048;8.306;2022-12-05T17:54:52;1.20;99.90
75091;DHT22;63674;48.048;8.306;2022-12-05T17:59:49;1.10;99.90
75091;DHT22;63674;48.048;8.306;2022-12-05T18:04:47;1.10;99.90
75091;DHT22;63674;48.048;8.306;2022-12-05T18:07:16;1.10;99.90
75091;DHT22;63674;48.048;8.306;2022-12-05T18:09:44;1.10;99.90
75091;DHT22;63674;48.048;8.306;2022-12-05T18:12:15;1.10;99.90
75091;DHT22;63674;48.048;8.306;2022-12-05T18:19:41;1.30;99.90
75091;DHT22;63674;48.048;8.306;2022-12-05T18:22:10;1.30;99.90
75091;DHT22;63674;48.048;8.306;2022-12-05T18:24:44;1.30;99.90
75091;DHT22;63674;48.048;8.306;2022-12-05T18:27:14;1.30;99.90
75091;DHT22;63674;48.048;8.306;2022-12-05T18:29:43;1.30;99.90
75091;DHT22;63674;48.048;8.306;2022-12-05T18:39:44;1.30;99.90
75091;DHT22;63674;48.048;8.306;2022-12-05T18:42:13;1.30;99.90
75091;DHT22;63674;48.048;8.306;2022-12-05T18:44:42;1.30;99.90
75091;DHT22;63674;48.048;8.306;2022-12-05T18:47:11;1.30;99.90
75091;DHT22;63674;48.048;8.306;2022-12-05T18:49:40;1.40;99.90
75091;DHT22;63674;48.048;8.306;2022-12-05T18:52:08;1.40;99.90
75091;DHT22;63674;48.048;8.306;2022-12-05T18:59:36;1.50;99.90
75091;DHT22;63674;48.048;8.306;2022-12-05T19:02:04;1.50;99.90
75091;DHT22;63674;48.048;8.306;2022-12-05T19:04:33;1.50;99.90
75091;DHT22;63674;48.048;8.306;2022-12-05T19:09:31;1.50;99.90
75091;DHT22;63674;48.048;8.306;2022-12-05T19:17:03;1.40;99.90
75091;DHT22;63674;48.048;8.306;2022-12-05T19:19:32;1.40;99.90
75091;DHT22;63674;48.048;8.306;2022-12-05T19:22:00;1.40;99.90
75091;DHT22;63674;48.048;8.306;2022-12-05T19:26:58;1.40;99.90
75091;DHT22;63674;48.048;8.306;2022-12-05T19:29:26;1.40;99.90
75091;DHT22;63674;48.048;8.306;2022-12-05T19:31:55;1.40;99.90
75091;DHT22;63674;48.048;8.306;2022-12-05T19:34:25;1.50;99.90
75091;DHT22;63674;48.048;8.306;2022-12-05T19:36:54;1.50;99.90
75091;DHT22;63674;48.048;8.306;2022-12-05T19:39:23;1.60;99.90
75091;DHT22;63674;48.048;8.306;2022-12-05T19:41:53;1.60;99.90